sensor_id;sensor_type;location;lat;lon;timestamp;temperature;humidity
46378;DHT22;32083;47.360;9.650;2023-05-10T00:37:31;15.30;99.90
46378;DHT22;32083;47.360;9.650;2023-05-10T00:40:43;15.20;99.90
46378;DHT22;32083;47.360;9.650;2023-05-10T00:51:30;15.10;99.90
46378;DHT22;32083;47.360;9.650;2023-05-10T00:54:00;15.10;99.90
46378;DHT22;32083;47.360;9.650;2023-05-10T00:56:29;15.00;99.90
46378;DHT22;32083;47.360;9.650;2023-05-10T00:58:56;15.00;99.90
46378;DHT22;32083;47.360;9.650;2023-05-10T01:01:24;15.00;99.90
46378;DHT22;32083;47.360;9.650;2023-05-10T01:04:03;15.00;99.90
46378;DHT22;32083;47.360;9.650;2023-05-10T01:06:29;14.90;99.90
46378;DHT22;32083;47.360;9.650;2023-05-10T01:08:58;14.90;99.90
46378;DHT22;32083;47.360;9.650;2023-05-10T01:11:47;14.80;99.90
46378;DHT22;32083;47.360;9.650;2023-05-10T01:14:21;14.80;99.90
46378;DHT22;32083;47.360;9.650;2023-05-10T01:16:56;14.70;99.90
46378;DHT22;32083;47.360;9.650;2023-05-10T01:19:42;14.70;99.90
46378;DHT22;32083;47.360;9.650;2023-05-10T01:22:42;14.60;99.90
46378;DHT22;32083;47.360;9.650;2023-05-10T01:31:22;14.40;99.90
46378;DHT22;32083;47.360;9.650;2023-05-10T01:34:16;14.40;99.90
46378;DHT22;32083;47.360;9.650;2023-05-10T01:37:31;14.30;99.90
46378;DHT22;32083;47.360;9.650;2023-05-10T01:40:02;14.00;99.90
46378;DHT22;32083;47.360;9.650;2023-05-10T01:42:36;14.10;99.90
46378;DHT22;32083;47.360;9.650;2023-05-10T01:45:24;14.10;99.90
46378;DHT22;32083;47.360;9.650;2023-05-10T01:48:12;14.20;99.90
46378;DHT22;32083;47.360;9.650;2023-05-10T01:50:43;14.20;99.90
46378;DHT22;32083;47.360;9.650;2023-05-10T01:53:17;14.20;99.90
46378;DHT22;32083;47.360;9.650;2023-05-10T01:55:53;14.30;99.90
46378;DHT22;32083;47.360;9.650;2023-05-10T01:58:24;14.30;99.90
46378;DHT22;32083;47.360;9.650;2023-05-10T02:00:56;14.20;99.90
46378;DHT22;32083;47.360;9.650;2023-05-10T02:03:35;14.20;99.90
46378;DHT22;32083;47.360;9.650;2023-05-10T02:06:17;14.20;99.90
46378;DHT22;32083;47.360;9.650;2023-05-10T02:08:49;14.20;99.90
46378;DHT22;32083;47.360;9.650;2023-05-10T02:11:21;14.20;99.90
46378;DHT22;32083;47.360;9.650;2023-05-10T02:13:54;14.10;99.90
46378;DHT22;32083;47.360;9.650;2023-05-10T02:16:27;14.10;99.90
46378;DHT22;32083;47.360;9.650;2023-05-10T02:19:05;14.20;99.90
46378;DHT22;32083;47.360;9.650;2023-05-10T02:21:43;14.20;99.90
46378;DHT22;32083;47.360;9.650;2023-05-10T02:24:18;14.20;99.90
46378;DHT22;32083;47.360;9.650;2023-05-10T02:26:51;14.20;99.90
46378;DHT22;32083;47.360;9.650;2023-05-10T02:29:24;14.20;99.90
46378;DHT22;32083;47.360;9.650;2023-05-10T02:31:53;14.10;99.90
46378;DHT22;32083;47.360;9.650;2023-05-10T02:34:25;14.10;99.90
46378;DHT22;32083;47.360;9.650;2023-05-10T02:37:03;14.00;99.90
46378;DHT22;32083;47.360;9.650;2023-05-10T02:39:44;14.10;99.90
46378;DHT22;32083;47.360;9.650;2023-05-10T02:42:18;14.10;99.90
46378;DHT22;32083;47.360;9.650;2023-05-10T02:44:52;14.10;99.90
46378;DHT22;32083;47.360;9.650;2023-05-10T02:47:19;14.10;99.90
46378;DHT22;32083;47.360;9.650;2023-05-10T02:49:50;14.10;99.90
46378;DHT22;32083;47.360;9.650;2023-05-10T02:52:27;14.10;99.90
46378;DHT22;32083;47.360;9.650;2023-05-10T02:55:01;14.10;99.90
46378;DHT22;32083;47.360;9.650;2023-05-10T02:57:34;14.00;99.90
46378;DHT22;32083;47.360;9.650;2023-05-10T03:00:02;14.00;99.90
46378;DHT22;32083;47.360;9.650;2023-05-10T03:02:31;14.00;99.90
46378;DHT22;32083;47.360;9.650;2023-05-10T03:05:13;13.90;99.90
46378;DHT22;32083;47.360;9.650;2023-05-10T03:07:39;14.00;99.90
46378;DHT22;32083;47.360;9.650;2023-05-10T03:10:06;14.00;99.90
46378;DHT22;32083;47.360;9.650;2023-05-10T03:18:03;14.10;99.90
46378;DHT22;32083;47.360;9.650;2023-05-10T03:20:38;14.10;99.90
46378;DHT22;32083;47.360;9.650;2023-05-10T03:25:43;14.00;99.90
46378;DHT22;32083;47.360;9.650;2023-05-10T03:28:12;14.00;99.90
46378;DHT22;32083;47.360;9.650;2023-05-10T03:30:41;14.00;99.90
46378;DHT22;32083;47.360;9.650;2023-05-10T03:33:13;14.00;99.90
46378;DHT22;32083;47.360;9.650;2023-05-10T03:35:42;14.00;99.90
46378;DHT22;32083;47.360;9.650;2023-05-10T03:38:13;14.00;99.90
46378;DHT22;32083;47.360;9.650;2023-05-10T03:40:39;14.00;99.90
46378;DHT22;32083;47.360;9.650;2023-05-10T03:43:06;13.90;99.90
46378;DHT22;32083;47.360;9.650;2023-05-10T03:45:34;13.90;99.90
46378;DHT22;32083;47.360;9.650;2023-05-10T03:48:00;13.80;99.90
46378;DHT22;32083;47.360;9.650;2023-05-10T03:50:26;13.80;99.90
46378;DHT22;32083;47.360;9.650;2023-05-10T03:52:55;13.80;99.90
46378;DHT22;32083;47.360;9.650;2023-05-10T03:55:26;13.90;99.90
46378;DHT22;32083;47.360;9.650;2023-05-10T03:57:59;13.90;99.90
46378;DHT22;32083;47.360;9.650;2023-05-10T04:00:34;13.90;99.90
46378;DHT22;32083;47.360;9.650;2023-05-10T04:03:00;13.90;99.90
46378;DHT22;32083;47.360;9.650;2023-05-10T04:05:26;13.90;99.90
46378;DHT22;32083;47.360;9.650;2023-05-10T04:07:52;13.90;99.90
46378;DHT22;32083;47.360;9.650;2023-05-10T04:10:23;13.90;99.90
46378;DHT22;32083;47.360;9.650;2023-05-10T04:12:49;13.90;99.90
46378;DHT22;32083;47.360;9.650;2023-05-10T04:15:15;13.90;99.90
46378;DHT22;32083;47.360;9.650;2023-05-10T04:17:50;14.00;99.90
46378;DHT22;32083;47.360;9.650;2023-05-10T04:20:15;13.90;99.90
46378;DHT22;32083;47.360;9.650;2023-05-10T04:22:51;14.00;99.90
46378;DHT22;32083;47.360;9.650;2023-05-10T04:25:17;14.00;99.90
46378;DHT22;32083;47.360;9.650;2023-05-10T04:27:46;14.00;99.90
46378;DHT22;32083;47.360;9.650;2023-05-10T04:30:12;14.00;99.90
46378;DHT22;32083;47.360;9.650;2023-05-10T04:32:48;14.00;99.90
46378;DHT22;32083;47.360;9.650;2023-05-10T04:35:15;13.90;99.90
46378;DHT22;32083;47.360;9.650;2023-05-10T04:37:43;13.90;99.90
46378;DHT22;32083;47.360;9.650;2023-05-10T04:40:09;13.90;99.90
46378;DHT22;32083;47.360;9.650;2023-05-10T04:42:36;14.00;99.90
46378;DHT22;32083;47.360;9.650;2023-05-10T04:45:05;14.00;99.90
46378;DHT22;32083;47.360;9.650;2023-05-10T04:47:35;14.00;99.90
46378;DHT22;32083;47.360;9.650;2023-05-10T04:50:04;14.00;99.90
46378;DHT22;32083;47.360;9.650;2023-05-10T04:52:39;14.10;99.90
46378;DHT22;32083;47.360;9.650;2023-05-10T04:55:38;14.10;99.90
46378;DHT22;32083;47.360;9.650;2023-05-10T04:58:27;14.20;99.90
46378;DHT22;32083;47.360;9.650;2023-05-10T05:00:53;14.20;99.90
46378;DHT22;32083;47.360;9.650;2023-05-10T05:03:19;14.20;99.90
46378;DHT22;32083;47.360;9.650;2023-05-10T05:05:45;14.10;99.90
46378;DHT22;32083;47.360;9.650;2023-05-10T05:08:11;14.10;99.90
46378;DHT22;32083;47.360;9.650;2023-05-10T05:10:38;14.20;99.90
46378;DHT22;32083;47.360;9.650;2023-05-10T05:13:04;14.20;99.90
46378;DHT22;32083;47.360;9.650;2023-05-10T05:15:30;14.30;99.90
46378;DHT22;32083;47.360;9.650;2023-05-10T05:17:56;14.30;99.90
46378;DHT22;32083;47.360;9.650;2023-05-10T05:20:22;14.20;99.90
46378;DHT22;32083;47.360;9.650;2023-05-10T05:22:48;14.30;99.90
46378;DHT22;32083;47.360;9.650;2023-05-10T05:25:15;14.30;99.90
46378;DHT22;32083;47.360;9.650;2023-05-10T05:27:41;14.30;99.90
46378;DHT22;32083;47.360;9.650;2023-05-10T05:30:08;14.40;99.90
46378;DHT22;32083;47.360;9.650;2023-05-10T05:32:34;14.40;99.90
46378;DHT22;32083;47.360;9.650;2023-05-10T05:35:00;14.40;99.90
46378;DHT22;32083;47.360;9.650;2023-05-10T05:37:26;14.40;99.90
46378;DHT22;32083;47.360;9.650;2023-05-10T05:39:52;14.50;99.90
46378;DHT22;32083;47.360;9.650;2023-05-10T05:42:20;14.50;99.90
46378;DHT22;32083;47.360;9.650;2023-05-10T05:44:46;14.50;99.90
46378;DHT22;32083;47.360;9.650;2023-05-10T05:47:12;14.50;99.90
46378;DHT22;32083;47.360;9.650;2023-05-10T05:49:38;14.50;99.90
46378;DHT22;32083;47.360;9.650;2023-05-10T05:52:05;14.50;99.90
46378;DHT22;32083;47.360;9.650;2023-05-10T05:54:31;14.50;99.90
46378;DHT22;32083;47.360;9.650;2023-05-10T05:56:58;14.50;99.90
46378;DHT22;32083;47.360;9.650;2023-05-10T05:59:25;14.50;99.90
46378;DHT22;32083;47.360;9.650;2023-05-10T06:01:51;14.50;99.90
46378;DHT22;32083;47.360;9.650;2023-05-10T06:04:18;14.50;99.90
46378;DHT22;32083;47.360;9.650;2023-05-10T06:06:44;14.60;99.90
46378;DHT22;32083;47.360;9.650;2023-05-10T06:09:10;14.60;99.90
46378;DHT22;32083;47.360;9.650;2023-05-10T06:11:36;14.60;99.90
46378;DHT22;32083;47.360;9.650;2023-05-10T06:14:03;14.60;99.90
46378;DHT22;32083;47.360;9.650;2023-05-10T06:16:36;14.60;99.90
46378;DHT22;32083;47.360;9.650;2023-05-10T06:19:02;14.60;99.90
46378;DHT22;32083;47.360;9.650;2023-05-10T06:21:29;14.60;99.90
46378;DHT22;32083;47.360;9.650;2023-05-10T06:23:55;14.60;99.90
46378;DHT22;32083;47.360;9.650;2023-05-10T06:26:21;14.60;99.90
46378;DHT22;32083;47.360;9.650;2023-05-10T06:28:47;14.70;99.90
46378;DHT22;32083;47.360;9.650;2023-05-10T06:31:13;14.80;99.90
46378;DHT22;32083;47.360;9.650;2023-05-10T06:33:39;14.80;99.90
46378;DHT22;32083;47.360;9.650;2023-05-10T06:36:05;14.80;99.90
46378;DHT22;32083;47.360;9.650;2023-05-10T06:38:32;14.80;99.90
46378;DHT22;32083;47.360;9.650;2023-05-10T06:40:58;14.80;99.90
46378;DHT22;32083;47.360;9.650;2023-05-10T06:43:25;14.70;99.90
46378;DHT22;32083;47.360;9.650;2023-05-10T06:45:51;14.70;99.90
46378;DHT22;32083;47.360;9.650;2023-05-10T06:48:17;14.70;99.90
46378;DHT22;32083;47.360;9.650;2023-05-10T06:50:43;14.70;99.90
46378;DHT22;32083;47.360;9.650;2023-05-10T06:53:09;14.70;99.90
46378;DHT22;32083;47.360;9.650;2023-05-10T06:55:35;14.70;99.90
46378;DHT22;32083;47.360;9.650;2023-05-10T06:58:01;14.70;99.90
46378;DHT22;32083;47.360;9.650;2023-05-10T07:00:27;14.60;99.90
46378;DHT22;32083;47.360;9.650;2023-05-10T07:02:53;14.60;99.90
46378;DHT22;32083;47.360;9.650;2023-05-10T07:05:20;14.60;99.90
46378;DHT22;32083;47.360;9.650;2023-05-10T07:07:46;14.60;99.90
46378;DHT22;32083;47.360;9.650;2023-05-10T07:10:13;14.60;99.90
46378;DHT22;32083;47.360;9.650;2023-05-10T07:12:39;14.60;99.90
46378;DHT22;32083;47.360;9.650;2023-05-10T07:15:05;14.60;99.90
46378;DHT22;32083;47.360;9.650;2023-05-10T07:17:32;14.60;99.90
46378;DHT22;32083;47.360;9.650;2023-05-10T07:19:59;14.70;99.90
46378;DHT22;32083;47.360;9.650;2023-05-10T07:22:26;14.60;99.90
46378;DHT22;32083;47.360;9.650;2023-05-10T07:24:52;14.60;99.90
46378;DHT22;32083;47.360;9.650;2023-05-10T07:27:18;14.50;99.90
46378;DHT22;32083;47.360;9.650;2023-05-10T07:29:44;14.50;99.90
46378;DHT22;32083;47.360;9.650;2023-05-10T07:32:10;14.50;99.90
46378;DHT22;32083;47.360;9.650;2023-05-10T07:34:36;14.50;99.90
46378;DHT22;32083;47.360;9.650;2023-05-10T07:37:02;14.50;99.90
46378;DHT22;32083;47.360;9.650;2023-05-10T07:39:28;14.60;99.90
46378;DHT22;32083;47.360;9.650;2023-05-10T07:41:54;14.60;99.90
46378;DHT22;32083;47.360;9.650;2023-05-10T07:44:20;14.60;99.90
46378;DHT22;32083;47.360;9.650;2023-05-10T07:46:47;14.70;99.90
46378;DHT22;32083;47.360;9.650;2023-05-10T07:49:14;14.70;99.90
46378;DHT22;32083;47.360;9.650;2023-05-10T07:51:40;14.70;99.90
46378;DHT22;32083;47.360;9.650;2023-05-10T08:08:21;14.50;99.90
46378;DHT22;32083;47.360;9.650;2023-05-10T08:14:02;14.50;99.90
46378;DHT22;32083;47.360;9.650;2023-05-10T08:16:28;14.40;99.90
46378;DHT22;32083;47.360;9.650;2023-05-10T08:18:54;14.40;99.90
46378;DHT22;32083;47.360;9.650;2023-05-10T08:21:22;14.40;99.90
46378;DHT22;32083;47.360;9.650;2023-05-10T08:23:48;14.40;99.90
46378;DHT22;32083;47.360;9.650;2023-05-10T08:26:14;14.30;99.90
46378;DHT22;32083;47.360;9.650;2023-05-10T08:28:40;14.30;99.90
46378;DHT22;32083;47.360;9.650;2023-05-10T08:31:06;14.30;99.90
46378;DHT22;32083;47.360;9.650;2023-05-10T08:33:32;14.20;99.90
46378;DHT22;32083;47.360;9.650;2023-05-10T08:35:58;14.20;99.90
46378;DHT22;32083;47.360;9.650;2023-05-10T08:38:24;14.10;99.90
46378;DHT22;32083;47.360;9.650;2023-05-10T08:40:54;14.20;99.90
46378;DHT22;32083;47.360;9.650;2023-05-10T08:43:27;14.20;99.90
46378;DHT22;32083;47.360;9.650;2023-05-10T08:45:56;14.20;99.90
46378;DHT22;32083;47.360;9.650;2023-05-10T08:48:24;14.20;99.90
46378;DHT22;32083;47.360;9.650;2023-05-10T08:50:53;14.30;99.90
46378;DHT22;32083;47.360;9.650;2023-05-10T08:53:24;14.30;99.90
46378;DHT22;32083;47.360;9.650;2023-05-10T08:55:52;14.30;99.90
46378;DHT22;32083;47.360;9.650;2023-05-10T08:58:19;14.30;99.90
46378;DHT22;32083;47.360;9.650;2023-05-10T09:00:46;14.30;99.90
46378;DHT22;32083;47.360;9.650;2023-05-10T09:03:13;14.40;99.90
46378;DHT22;32083;47.360;9.650;2023-05-10T09:05:39;14.40;99.90
46378;DHT22;32083;47.360;9.650;2023-05-10T09:08:06;14.50;99.90
46378;DHT22;32083;47.360;9.650;2023-05-10T09:10:33;14.50;99.90
46378;DHT22;32083;47.360;9.650;2023-05-10T09:13:00;14.50;99.90
46378;DHT22;32083;47.360;9.650;2023-05-10T09:15:27;14.50;99.90
46378;DHT22;32083;47.360;9.650;2023-05-10T09:17:54;14.50;99.90
46378;DHT22;32083;47.360;9.650;2023-05-10T09:20:21;14.50;99.90
46378;DHT22;32083;47.360;9.650;2023-05-10T09:22:47;14.50;99.90
46378;DHT22;32083;47.360;9.650;2023-05-10T09:25:14;14.50;99.90
46378;DHT22;32083;47.360;9.650;2023-05-10T09:27:44;14.50;99.90
46378;DHT22;32083;47.360;9.650;2023-05-10T09:30:15;14.50;99.90
46378;DHT22;32083;47.360;9.650;2023-05-10T09:32:43;14.60;99.90
46378;DHT22;32083;47.360;9.650;2023-05-10T09:35:11;14.70;99.90
46378;DHT22;32083;47.360;9.650;2023-05-10T09:37:42;14.80;99.90
46378;DHT22;32083;47.360;9.650;2023-05-10T09:40:15;14.80;99.90
46378;DHT22;32083;47.360;9.650;2023-05-10T09:45:27;14.80;99.90
46378;DHT22;32083;47.360;9.650;2023-05-10T09:47:54;14.70;99.90
46378;DHT22;32083;47.360;9.650;2023-05-10T09:50:21;14.70;99.90
46378;DHT22;32083;47.360;9.650;2023-05-10T09:55:15;14.70;99.90
46378;DHT22;32083;47.360;9.650;2023-05-10T09:57:41;14.70;99.90
46378;DHT22;32083;47.360;9.650;2023-05-10T10:00:08;14.70;99.90
46378;DHT22;32083;47.360;9.650;2023-05-10T10:02:39;14.70;99.90
46378;DHT22;32083;47.360;9.650;2023-05-10T10:05:06;14.70;99.90
46378;DHT22;32083;47.360;9.650;2023-05-10T10:07:33;14.70;99.90
46378;DHT22;32083;47.360;9.650;2023-05-10T10:10:00;14.70;99.90
46378;DHT22;32083;47.360;9.650;2023-05-10T10:12:27;14.70;99.90
46378;DHT22;32083;47.360;9.650;2023-05-10T10:14:55;14.70;99.90
46378;DHT22;32083;47.360;9.650;2023-05-10T10:17:24;14.70;99.90
46378;DHT22;32083;47.360;9.650;2023-05-10T10:19:53;14.70;99.90
46378;DHT22;32083;47.360;9.650;2023-05-10T10:22:20;14.70;99.90
46378;DHT22;32083;47.360;9.650;2023-05-10T10:24:46;14.70;99.90
46378;DHT22;32083;47.360;9.650;2023-05-10T10:27:26;14.70;99.90
46378;DHT22;32083;47.360;9.650;2023-05-10T10:30:35;14.70;99.90
46378;DHT22;32083;47.360;9.650;2023-05-10T10:33:13;14.70;99.90
46378;DHT22;32083;47.360;9.650;2023-05-10T10:35:45;14.70;99.90
46378;DHT22;32083;47.360;9.650;2023-05-10T10:38:12;14.70;99.90
46378;DHT22;32083;47.360;9.650;2023-05-10T10:40:39;14.60;99.90
46378;DHT22;32083;47.360;9.650;2023-05-10T10:43:22;14.60;99.90
46378;DHT22;32083;47.360;9.650;2023-05-10T10:46:15;14.60;99.90
46378;DHT22;32083;47.360;9.650;2023-05-10T10:49:07;14.60;99.90
46378;DHT22;32083;47.360;9.650;2023-05-10T10:51:28;14.60;99.90
46378;DHT22;32083;47.360;9.650;2023-05-10T10:54:11;14.60;99.90
46378;DHT22;32083;47.360;9.650;2023-05-10T10:56:37;14.60;99.90
46378;DHT22;32083;47.360;9.650;2023-05-10T10:59:03;14.70;99.90
46378;DHT22;32083;47.360;9.650;2023-05-10T11:01:33;14.70;99.90
46378;DHT22;32083;47.360;9.650;2023-05-10T11:06:32;14.70;99.90
46378;DHT22;32083;47.360;9.650;2023-05-10T11:09:06;14.80;99.90
46378;DHT22;32083;47.360;9.650;2023-05-10T11:11:34;14.80;99.90
46378;DHT22;32083;47.360;9.650;2023-05-10T11:14:07;14.90;99.90
46378;DHT22;32083;47.360;9.650;2023-05-10T11:16:44;14.80;99.90
46378;DHT22;32083;47.360;9.650;2023-05-10T11:19:12;14.80;99.90
46378;DHT22;32083;47.360;9.650;2023-05-10T11:24:31;14.90;99.90
46378;DHT22;32083;47.360;9.650;2023-05-10T11:26:57;14.90;99.90
46378;DHT22;32083;47.360;9.650;2023-05-10T11:29:23;14.90;99.90
46378;DHT22;32083;47.360;9.650;2023-05-10T11:31:51;14.90;99.90
46378;DHT22;32083;47.360;9.650;2023-05-10T11:34:31;14.90;99.90
46378;DHT22;32083;47.360;9.650;2023-05-10T11:37:00;14.90;99.90
46378;DHT22;32083;47.360;9.650;2023-05-10T11:39:27;15.00;99.90
46378;DHT22;32083;47.360;9.650;2023-05-10T11:41:54;15.10;99.90
46378;DHT22;32083;47.360;9.650;2023-05-10T11:44:20;15.10;99.90
46378;DHT22;32083;47.360;9.650;2023-05-10T11:46:46;15.10;99.90
46378;DHT22;32083;47.360;9.650;2023-05-10T11:49:12;15.20;99.90
46378;DHT22;32083;47.360;9.650;2023-05-10T11:51:39;15.10;99.90
46378;DHT22;32083;47.360;9.650;2023-05-10T11:54:07;15.10;99.90
46378;DHT22;32083;47.360;9.650;2023-05-10T11:56:37;15.10;99.90
46378;DHT22;32083;47.360;9.650;2023-05-10T11:59:04;15.00;99.90
46378;DHT22;32083;47.360;9.650;2023-05-10T12:01:30;15.00;99.90
46378;DHT22;32083;47.360;9.650;2023-05-10T12:03:58;15.00;99.90
46378;DHT22;32083;47.360;9.650;2023-05-10T12:06:32;14.90;99.90
46378;DHT22;32083;47.360;9.650;2023-05-10T12:09:06;14.90;99.90
46378;DHT22;32083;47.360;9.650;2023-05-10T12:11:39;14.80;99.90
46378;DHT22;32083;47.360;9.650;2023-05-10T12:14:07;14.90;99.90
46378;DHT22;32083;47.360;9.650;2023-05-10T12:16:33;14.90;99.90
46378;DHT22;32083;47.360;9.650;2023-05-10T12:19:00;14.90;99.90
46378;DHT22;32083;47.360;9.650;2023-05-10T12:21:28;15.00;99.90
46378;DHT22;32083;47.360;9.650;2023-05-10T12:23:58;15.00;99.90
46378;DHT22;32083;47.360;9.650;2023-05-10T12:26:25;15.00;99.90
46378;DHT22;32083;47.360;9.650;2023-05-10T12:28:55;14.90;99.90
46378;DHT22;32083;47.360;9.650;2023-05-10T12:31:21;14.90;99.90
46378;DHT22;32083;47.360;9.650;2023-05-10T12:33:47;14.90;99.90
46378;DHT22;32083;47.360;9.650;2023-05-10T12:36:15;14.80;99.90
46378;DHT22;32083;47.360;9.650;2023-05-10T12:38:45;14.80;99.90
46378;DHT22;32083;47.360;9.650;2023-05-10T12:41:18;14.80;99.90
46378;DHT22;32083;47.360;9.650;2023-05-10T12:43:45;14.80;99.90
46378;DHT22;32083;47.360;9.650;2023-05-10T12:46:13;14.80;99.90
46378;DHT22;32083;47.360;9.650;2023-05-10T12:48:41;14.90;99.90
46378;DHT22;32083;47.360;9.650;2023-05-10T12:51:08;14.90;99.90
46378;DHT22;32083;47.360;9.650;2023-05-10T12:53:35;14.90;99.90
46378;DHT22;32083;47.360;9.650;2023-05-10T12:56:02;14.90;99.90
46378;DHT22;32083;47.360;9.650;2023-05-10T12:58:28;14.90;99.90
46378;DHT22;32083;47.360;9.650;2023-05-10T13:00:54;14.80;99.90
46378;DHT22;32083;47.360;9.650;2023-05-10T13:03:22;14.70;99.90
46378;DHT22;32083;47.360;9.650;2023-05-10T13:05:48;14.80;99.90
46378;DHT22;32083;47.360;9.650;2023-05-10T13:08:14;14.80;99.90
46378;DHT22;32083;47.360;9.650;2023-05-10T13:10:40;14.80;99.90
46378;DHT22;32083;47.360;9.650;2023-05-10T13:13:07;14.90;99.90
46378;DHT22;32083;47.360;9.650;2023-05-10T13:15:35;14.90;99.90
46378;DHT22;32083;47.360;9.650;2023-05-10T13:18:04;14.90;99.90
46378;DHT22;32083;47.360;9.650;2023-05-10T13:20:30;14.90;99.90
46378;DHT22;32083;47.360;9.650;2023-05-10T13:22:56;15.00;99.90
46378;DHT22;32083;47.360;9.650;2023-05-10T13:25:22;15.00;99.90
46378;DHT22;32083;47.360;9.650;2023-05-10T13:27:48;15.00;99.90
46378;DHT22;32083;47.360;9.650;2023-05-10T13:30:14;15.10;99.90
46378;DHT22;32083;47.360;9.650;2023-05-10T13:32:40;15.00;99.90
46378;DHT22;32083;47.360;9.650;2023-05-10T13:35:07;15.00;99.90
46378;DHT22;32083;47.360;9.650;2023-05-10T13:37:33;14.90;99.90
46378;DHT22;32083;47.360;9.650;2023-05-10T13:40:03;14.90;99.90
46378;DHT22;32083;47.360;9.650;2023-05-10T13:42:29;14.90;99.90
46378;DHT22;32083;47.360;9.650;2023-05-10T13:44:57;14.90;99.90
46378;DHT22;32083;47.360;9.650;2023-05-10T13:47:23;14.90;99.90
46378;DHT22;32083;47.360;9.650;2023-05-10T13:49:49;14.90;99.90
46378;DHT22;32083;47.360;9.650;2023-05-10T13:52:15;15.00;99.90
46378;DHT22;32083;47.360;9.650;2023-05-10T13:54:41;15.00;99.90
46378;DHT22;32083;47.360;9.650;2023-05-10T13:57:07;14.90;99.90
46378;DHT22;32083;47.360;9.650;2023-05-10T13:59:33;14.90;99.90
46378;DHT22;32083;47.360;9.650;2023-05-10T14:01:59;14.90;99.90
46378;DHT22;32083;47.360;9.650;2023-05-10T14:04:28;14.80;99.90
46378;DHT22;32083;47.360;9.650;2023-05-10T14:06:54;14.80;99.90
46378;DHT22;32083;47.360;9.650;2023-05-10T14:09:20;14.80;99.90
46378;DHT22;32083;47.360;9.650;2023-05-10T14:11:46;14.80;99.90
46378;DHT22;32083;47.360;9.650;2023-05-10T14:14:12;14.80;99.90
46378;DHT22;32083;47.360;9.650;2023-05-10T14:16:42;14.80;99.90
46378;DHT22;32083;47.360;9.650;2023-05-10T14:19:08;14.90;99.90
46378;DHT22;32083;47.360;9.650;2023-05-10T14:21:34;14.90;99.90
46378;DHT22;32083;47.360;9.650;2023-05-10T14:24:00;14.80;99.90
46378;DHT22;32083;47.360;9.650;2023-05-10T14:26:26;14.70;99.90
46378;DHT22;32083;47.360;9.650;2023-05-10T14:28:53;14.80;99.90
46378;DHT22;32083;47.360;9.650;2023-05-10T14:31:19;14.70;99.90
46378;DHT22;32083;47.360;9.650;2023-05-10T14:33:46;14.80;99.90
46378;DHT22;32083;47.360;9.650;2023-05-10T14:36:13;14.80;99.90
46378;DHT22;32083;47.360;9.650;2023-05-10T14:38:40;14.80;99.90
46378;DHT22;32083;47.360;9.650;2023-05-10T14:41:06;14.80;99.90
46378;DHT22;32083;47.360;9.650;2023-05-10T14:43:32;14.70;99.90
46378;DHT22;32083;47.360;9.650;2023-05-10T14:45:58;14.70;99.90
46378;DHT22;32083;47.360;9.650;2023-05-10T14:48:24;14.80;99.90
46378;DHT22;32083;47.360;9.650;2023-05-10T14:50:50;14.80;99.90
46378;DHT22;32083;47.360;9.650;2023-05-10T14:53:18;14.80;99.90
46378;DHT22;32083;47.360;9.650;2023-05-10T14:55:44;14.80;99.90
46378;DHT22;32083;47.360;9.650;2023-05-10T14:58:10;14.90;99.90
46378;DHT22;32083;47.360;9.650;2023-05-10T15:00:36;14.90;99.90
46378;DHT22;32083;47.360;9.650;2023-05-10T15:03:02;14.90;99.90
46378;DHT22;32083;47.360;9.650;2023-05-10T15:05:29;14.90;99.90
46378;DHT22;32083;47.360;9.650;2023-05-10T15:07:55;14.90;99.90
46378;DHT22;32083;47.360;9.650;2023-05-10T15:10:21;14.80;99.90
46378;DHT22;32083;47.360;9.650;2023-05-10T15:12:47;14.90;99.90
46378;DHT22;32083;47.360;9.650;2023-05-10T15:15:13;14.90;99.90
46378;DHT22;32083;47.360;9.650;2023-05-10T15:17:39;15.00;99.90
46378;DHT22;32083;47.360;9.650;2023-05-10T15:20:06;15.00;99.90
46378;DHT22;32083;47.360;9.650;2023-05-10T15:22:32;15.00;99.90
46378;DHT22;32083;47.360;9.650;2023-05-10T15:24:58;14.90;99.90
46378;DHT22;32083;47.360;9.650;2023-05-10T15:27:25;15.00;99.90
46378;DHT22;32083;47.360;9.650;2023-05-10T15:29:51;14.90;99.90
46378;DHT22;32083;47.360;9.650;2023-05-10T15:32:17;14.90;99.90
46378;DHT22;32083;47.360;9.650;2023-05-10T15:34:43;14.90;99.90
46378;DHT22;32083;47.360;9.650;2023-05-10T15:37:09;14.80;99.90
46378;DHT22;32083;47.360;9.650;2023-05-10T15:39:35;14.80;99.90
46378;DHT22;32083;47.360;9.650;2023-05-10T15:42:01;14.80;99.90
46378;DHT22;32083;47.360;9.650;2023-05-10T15:44:28;14.80;99.90
46378;DHT22;32083;47.360;9.650;2023-05-10T15:46:54;14.70;99.90
46378;DHT22;32083;47.360;9.650;2023-05-10T15:49:21;14.70;99.90
46378;DHT22;32083;47.360;9.650;2023-05-10T15:51:47;14.60;99.90
46378;DHT22;32083;47.360;9.650;2023-05-10T15:54:13;14.60;99.90
46378;DHT22;32083;47.360;9.650;2023-05-10T15:56:39;14.60;99.90
46378;DHT22;32083;47.360;9.650;2023-05-10T15:59:06;14.50;99.90
46378;DHT22;32083;47.360;9.650;2023-05-10T16:01:37;14.50;99.90
46378;DHT22;32083;47.360;9.650;2023-05-10T16:04:03;14.50;99.90
46378;DHT22;32083;47.360;9.650;2023-05-10T16:06:29;14.40;99.90
46378;DHT22;32083;47.360;9.650;2023-05-10T16:08:55;14.40;99.90
46378;DHT22;32083;47.360;9.650;2023-05-10T16:11:22;14.30;99.90
46378;DHT22;32083;47.360;9.650;2023-05-10T16:13:48;14.30;99.90
46378;DHT22;32083;47.360;9.650;2023-05-10T16:16:14;14.30;99.90
46378;DHT22;32083;47.360;9.650;2023-05-10T16:18:40;14.30;99.90
46378;DHT22;32083;47.360;9.650;2023-05-10T16:21:06;14.20;99.90
46378;DHT22;32083;47.360;9.650;2023-05-10T16:23:32;14.30;99.90
46378;DHT22;32083;47.360;9.650;2023-05-10T16:25:58;14.30;99.90
46378;DHT22;32083;47.360;9.650;2023-05-10T16:28:24;14.30;99.90
46378;DHT22;32083;47.360;9.650;2023-05-10T16:30:50;14.20;99.90
46378;DHT22;32083;47.360;9.650;2023-05-10T16:33:16;14.20;99.90
46378;DHT22;32083;47.360;9.650;2023-05-10T16:35:42;14.20;99.90
46378;DHT22;32083;47.360;9.650;2023-05-10T16:38:08;14.20;99.90
46378;DHT22;32083;47.360;9.650;2023-05-10T16:40:34;14.20;99.90
46378;DHT22;32083;47.360;9.650;2023-05-10T16:43:00;14.20;99.90
46378;DHT22;32083;47.360;9.650;2023-05-10T16:45:26;14.20;99.90
46378;DHT22;32083;47.360;9.650;2023-05-10T16:47:53;14.20;99.90
46378;DHT22;32083;47.360;9.650;2023-05-10T16:50:19;14.20;99.90
46378;DHT22;32083;47.360;9.650;2023-05-10T16:52:45;14.20;99.90
46378;DHT22;32083;47.360;9.650;2023-05-10T16:55:11;14.20;99.90
46378;DHT22;32083;47.360;9.650;2023-05-10T16:57:37;14.20;99.90
46378;DHT22;32083;47.360;9.650;2023-05-10T17:00:04;14.20;99.90
46378;DHT22;32083;47.360;9.650;2023-05-10T17:02:30;14.00;99.90
46378;DHT22;32083;47.360;9.650;2023-05-10T17:04:56;14.00;99.90
46378;DHT22;32083;47.360;9.650;2023-05-10T17:07:22;14.00;99.90